createdAt,value
2023-09-12T00:03:32.405Z,4.30
2023-09-12T00:08:37.639Z,4.47
2023-09-12T00:13:46.911Z,4.00
2023-09-12T00:19:04.859Z,5.45
2023-09-12T00:24:16.669Z,5.10
2023-09-12T00:29:29.144Z,5.30
2023-09-12T00:34:35.143Z,4.60
2023-09-12T00:39:43.066Z,4.47
2023-09-12T00:44:47.066Z,5.38
2023-09-12T00:49:56.342Z,5.13
2023-09-12T00:55:03.319Z,4.82
2023-09-12T01:05:27.432Z,5.72
2023-09-12T01:10:37.738Z,5.35
2023-09-12T01:15:48.779Z,5.05
2023-09-12T01:21:42.782Z,5.88
2023-09-12T01:27:04.736Z,6.75
2023-09-12T01:32:15.785Z,6.47
2023-09-12T01:37:25.036Z,6.15
2023-09-12T01:42:37.940Z,5.72
2023-09-12T01:47:41.650Z,5.53
2023-09-12T01:52:46.340Z,5.75
2023-09-12T01:58:02.006Z,5.40
2023-09-12T02:03:05.560Z,4.90
2023-09-12T02:08:09.595Z,4.80
2023-09-12T02:18:33.458Z,5.18
2023-09-12T02:23:42.804Z,5.43
2023-09-12T02:31:25.040Z,4.80
2023-09-12T02:36:38.372Z,4.55
2023-09-12T02:41:42.916Z,5.75
2023-09-12T02:46:52.846Z,5.80
2023-09-12T02:52:02.422Z,4.85
2023-09-12T02:57:11.607Z,4.70
2023-09-12T03:02:23.480Z,4.75
2023-09-12T03:07:33.092Z,5.47
2023-09-12T03:13:04.226Z,5.13
2023-09-12T03:18:13.027Z,5.38
2023-09-12T03:23:17.811Z,5.70
2023-09-12T03:28:23.811Z,5.95
2023-09-12T03:33:28.987Z,5.80
2023-09-12T03:38:37.053Z,6.03
2023-09-12T03:44:07.175Z,5.20
2023-09-12T03:49:12.057Z,5.85
2023-09-12T03:54:19.540Z,5.53
2023-09-12T03:59:28.053Z,5.82
2023-09-12T04:04:33.168Z,5.20
2023-09-12T04:09:40.153Z,5.53
2023-09-12T04:14:42.310Z,5.65
2023-09-12T04:19:44.591Z,6.10
2023-09-12T04:24:46.913Z,4.95
2023-09-12T04:29:49.108Z,5.45
2023-09-12T04:34:52.132Z,5.75
2023-09-12T04:39:54.790Z,5.72
2023-09-12T04:44:57.671Z,4.63
2023-09-12T04:50:01.295Z,4.43
2023-09-12T04:55:04.952Z,4.88
2023-09-12T05:00:08.510Z,4.57
2023-09-12T05:05:10.852Z,4.82
2023-09-12T05:10:13.570Z,4.47
2023-09-12T05:15:16.017Z,5.35
2023-09-12T05:20:18.747Z,5.43
2023-09-12T05:25:21.240Z,5.75
2023-09-12T05:30:23.810Z,5.43
2023-09-12T05:35:26.290Z,5.10
2023-09-12T05:40:29.557Z,6.32
2023-09-12T05:45:34.060Z,5.15
2023-09-12T05:50:40.675Z,4.65
2023-09-12T05:55:42.879Z,6.10
2023-09-12T06:00:45.628Z,6.00
2023-09-12T06:05:47.775Z,6.18
2023-09-12T06:10:50.187Z,5.47
2023-09-12T06:15:52.435Z,6.22
2023-09-12T06:20:54.551Z,5.65
2023-09-12T06:25:56.824Z,6.93
2023-09-12T06:30:59.931Z,5.97
2023-09-12T06:36:05.253Z,5.60
2023-09-12T06:41:07.328Z,5.10
2023-09-12T06:46:09.430Z,5.05
2023-09-12T06:51:16.731Z,5.40
2023-09-12T06:56:22.496Z,6.07
2023-09-12T07:01:25.042Z,5.72
2023-09-12T07:06:27.279Z,5.35
2023-09-12T07:11:29.553Z,4.38
2023-09-12T07:16:32.969Z,5.22
2023-09-12T07:21:35.035Z,4.65
2023-09-12T07:26:39.171Z,5.10
2023-09-12T07:31:41.347Z,5.13
2023-09-12T07:36:43.537Z,5.68
2023-09-12T07:41:45.588Z,4.63
2023-09-12T07:46:47.875Z,4.70
2023-09-12T07:51:49.997Z,3.85
2023-09-12T07:56:52.237Z,4.80
2023-09-12T08:01:54.729Z,4.90
2023-09-12T08:06:58.292Z,5.63
2023-09-12T08:12:00.940Z,3.75
2023-09-12T08:17:03.097Z,5.70
2023-09-12T08:22:06.107Z,4.88
2023-09-12T08:27:11.045Z,4.63
2023-09-12T08:32:13.633Z,3.80
2023-09-12T08:37:15.899Z,4.60
2023-09-12T08:42:18.098Z,4.07
2023-09-12T08:47:23.026Z,4.63
2023-09-12T08:52:25.425Z,3.67
2023-09-12T08:57:28.648Z,3.40
2023-09-12T09:02:31.865Z,3.33
2023-09-12T09:07:39.004Z,3.28
2023-09-12T09:12:41.763Z,4.03
2023-09-12T09:17:47.242Z,3.90
2023-09-12T09:23:00.671Z,4.13
2023-09-12T09:28:07.116Z,3.53
2023-09-12T09:33:10.084Z,3.53
2023-09-12T09:38:17.460Z,3.50
2023-09-12T09:43:23.492Z,4.05
2023-09-12T09:48:29.876Z,3.50
2023-09-12T09:53:36.071Z,3.55
2023-09-12T09:58:58.351Z,3.80
2023-09-12T10:04:02.403Z,3.80
2023-09-12T10:09:13.238Z,3.55
2023-09-12T10:14:20.240Z,4.30
2023-09-12T10:19:39.708Z,3.75
2023-09-12T10:24:44.865Z,4.13
2023-09-12T10:29:49.830Z,3.78
2023-09-12T10:34:53.796Z,3.83
2023-09-12T10:39:57.771Z,4.50
2023-09-12T10:45:02.184Z,4.47
2023-09-12T10:50:04.606Z,3.83
2023-09-12T10:55:07.795Z,3.55
2023-09-12T11:00:12.057Z,3.50
2023-09-12T11:05:30.081Z,3.90
2023-09-12T11:10:35.608Z,3.50
2023-09-12T11:15:40.818Z,3.88
2023-09-12T11:20:59.604Z,3.33
2023-09-12T11:26:08.989Z,2.88
2023-09-12T11:31:11.710Z,2.88
2023-09-12T11:36:20.609Z,3.30
2023-09-12T11:41:41.228Z,3.10
2023-09-12T11:46:44.540Z,3.60
2023-09-12T11:51:54.143Z,5.97
2023-09-12T11:57:00.885Z,3.22
2023-09-12T12:02:08.146Z,3.17
2023-09-12T12:07:11.543Z,3.10
2023-09-12T12:12:15.555Z,3.45
2023-09-12T12:17:17.775Z,3.03
2023-09-12T12:22:20.260Z,3.35
2023-09-12T12:27:22.738Z,3.30
2023-09-12T12:32:25.145Z,3.50
2023-09-12T12:37:34.332Z,3.70
2023-09-12T12:42:53.217Z,3.80
2023-09-12T12:48:01.814Z,3.90
2023-09-12T12:53:04.211Z,4.28
2023-09-12T12:58:06.473Z,4.18
2023-09-12T13:03:08.884Z,4.20
2023-09-12T13:08:11.186Z,6.10
2023-09-12T13:13:14.274Z,5.05
2023-09-12T13:18:16.453Z,4.18
2023-09-12T13:23:19.115Z,3.90
2023-09-12T13:28:21.293Z,3.50
2023-09-12T13:33:23.809Z,3.88
2023-09-12T13:38:26.501Z,3.70
2023-09-12T13:43:29.639Z,4.13
2023-09-12T13:48:31.777Z,4.10
2023-09-12T13:53:34.019Z,4.60
2023-09-12T13:58:44.238Z,4.35
2023-09-12T14:03:49.765Z,4.88
2023-09-12T14:08:54.540Z,4.50
2023-09-12T14:14:08.661Z,4.22
2023-09-12T14:19:13.464Z,4.50
2023-09-12T14:24:16.221Z,4.28
2023-09-12T14:29:18.545Z,4.10
2023-09-12T14:34:20.846Z,3.47
2023-09-12T14:39:23.637Z,3.80
2023-09-12T14:44:26.408Z,4.90
2023-09-12T14:49:29.150Z,4.70
2023-09-12T14:54:32.386Z,8.52
2023-09-12T14:59:34.596Z,4.88
2023-09-12T15:04:36.863Z,4.38
2023-09-12T15:09:39.213Z,5.35
2023-09-12T15:14:41.347Z,4.50
2023-09-12T15:19:44.155Z,6.38
2023-09-12T15:24:46.388Z,5.18
2023-09-12T15:29:48.833Z,4.40
2023-09-12T15:34:51.147Z,4.47
2023-09-12T15:39:53.232Z,4.63
2023-09-12T15:45:02.144Z,4.53
2023-09-12T15:50:08.335Z,4.47
2023-09-12T15:55:12.392Z,4.53
2023-09-12T16:00:15.837Z,5.25
2023-09-12T16:05:18.588Z,4.15
2023-09-12T16:10:21.050Z,4.90
2023-09-12T16:15:23.374Z,5.05
2023-09-12T16:20:26.012Z,5.63
2023-09-12T16:25:28.325Z,5.28
2023-09-12T16:30:30.712Z,5.45
2023-09-12T16:35:33.073Z,5.03
2023-09-12T16:40:38.121Z,5.07
2023-09-12T16:45:40.733Z,5.00
2023-09-12T16:50:42.781Z,4.80
2023-09-12T16:55:45.231Z,4.53
2023-09-12T17:00:47.690Z,5.03
2023-09-12T17:05:50.077Z,4.43
2023-09-12T17:10:52.168Z,4.53
2023-09-12T17:15:56.856Z,4.10
2023-09-12T17:20:59.020Z,5.22
2023-09-12T17:26:01.519Z,4.93
2023-09-12T17:31:04.064Z,5.18
2023-09-12T17:36:06.725Z,5.10
2023-09-12T17:41:10.207Z,5.30
2023-09-12T17:46:12.616Z,5.28
2023-09-12T17:51:14.738Z,5.47
2023-09-12T17:56:16.872Z,5.22
2023-09-12T18:01:19.299Z,5.90
2023-09-12T18:06:21.999Z,5.80
2023-09-12T18:11:25.837Z,5.50
2023-09-12T18:16:29.801Z,5.50
2023-09-12T18:21:32.314Z,4.95
2023-09-12T18:26:34.584Z,5.18
2023-09-12T18:31:36.870Z,5.60
2023-09-12T18:36:39.436Z,5.15
2023-09-12T18:41:41.772Z,5.13
2023-09-12T18:46:44.783Z,4.80
2023-09-12T18:51:48.156Z,4.93
2023-09-12T18:56:51.724Z,5.28
2023-09-12T19:01:53.811Z,4.90
2023-09-12T19:06:56.604Z,4.93
2023-09-12T19:11:59.035Z,4.32
2023-09-12T19:17:01.498Z,4.38
2023-09-12T19:22:03.914Z,4.55
2023-09-12T19:27:06.339Z,4.20
2023-09-12T19:32:08.742Z,4.93
2023-09-12T19:37:11.310Z,3.95
2023-09-12T19:42:13.611Z,3.50
2023-09-12T19:47:20.081Z,3.00
2023-09-12T19:52:24.650Z,4.75
2023-09-12T19:57:27.306Z,6.65
2023-09-12T20:02:29.441Z,5.85
2023-09-12T20:07:31.420Z,4.75
2023-09-12T20:12:33.839Z,4.93
2023-09-12T20:17:36.085Z,3.72
2023-09-12T20:22:38.243Z,4.03
2023-09-12T20:27:40.233Z,3.83
2023-09-12T20:32:57.028Z,3.20
2023-09-12T20:38:00.144Z,5.03
2023-09-12T20:43:02.601Z,4.78
2023-09-12T20:48:05.448Z,3.72
2023-09-12T20:53:08.896Z,5.05
2023-09-12T20:58:12.776Z,5.30
2023-09-12T21:03:15.033Z,4.88
2023-09-12T21:08:17.706Z,4.75
2023-09-12T21:13:19.840Z,4.00
2023-09-12T21:18:21.980Z,4.47
2023-09-12T21:23:24.198Z,5.53
2023-09-12T21:28:26.296Z,4.47
2023-09-12T21:33:28.383Z,5.97
2023-09-12T21:38:30.434Z,4.30
2023-09-12T21:43:32.989Z,5.18
2023-09-12T21:48:35.283Z,4.97
2023-09-12T21:53:37.630Z,5.28
2023-09-12T21:58:39.736Z,5.90
2023-09-12T22:03:42.317Z,5.40
2023-09-12T22:08:44.906Z,5.95
2023-09-12T22:13:47.194Z,5.70
2023-09-12T22:18:49.126Z,5.32
2023-09-12T22:23:51.867Z,5.90
2023-09-12T22:28:53.962Z,6.10
2023-09-12T22:33:56.144Z,5.03
2023-09-12T22:38:59.852Z,5.18
2023-09-12T22:44:03.084Z,6.95
2023-09-12T22:49:05.247Z,4.28
2023-09-12T22:54:07.435Z,4.60
2023-09-12T22:59:09.447Z,5.68
2023-09-12T23:04:11.738Z,4.70
2023-09-12T23:09:14.073Z,5.07
2023-09-12T23:14:16.280Z,5.18
2023-09-12T23:19:18.532Z,3.80
2023-09-12T23:24:20.842Z,4.72
2023-09-12T23:29:23.095Z,5.47
2023-09-12T23:34:25.413Z,5.63
2023-09-12T23:39:27.676Z,4.82
2023-09-12T23:44:30.234Z,4.43
2023-09-12T23:49:32.662Z,3.88
2023-09-12T23:54:35.550Z,5.25
2023-09-12T23:59:40.800Z,5.97
